»·PEaware :: DAL2596 KSLC-KABQ

DAL2596 :: KSLC-KABQ

FLIGHT INFORMATION

Flight Status: Arrived
Operator:
Delta Air Lines
More flights by this operator :: More flights under this callsign
Pilot: Sanjiv S. (4490)
Aircraft: AIRBUS A320
(A320)
More flights by this aircraft type
Origin: KSLC Salt Lake City Intl
United States
Destination: KABQ Albuquerque Intl Sunport
United States
More flights between these airports :: More routes between these airports
Route: +NSIGN5 MTU JNC J15 RSK BRMLY LOWBO3
File this flight plan on PilotEdge
Remarks:
Altitude:
(Current/Filed)
37,000ft
Speed:
(Current/Filed)
440kts
Departed: 07-Dec-17 08:56 AM
Arrived: 07-Dec-17 10:09 AM
Distance/Time
Traveled:
428nm/1:12
Distance/Time
To Go:
Arrived

Flight Plot

Page will automatically refresh every two minutes.

Flight plan parsing failed; only flown route is shown


Map Options




Map Legend


Flown Route
Filed Route
Departure Airport
Arrival Airport
Navaid (VOR, NDB)
Fix

Horizontal Profiles

Position Reports

Time Latitude Longitude Heading Altitude Ground
Speed
07-Dec-17 08:19 40.788508 -111.980775 283 4236ft 0kts
07-Dec-17 08:20 40.788508 -111.980775 283 4236ft 0kts
07-Dec-17 08:21 40.788508 -111.980775 283 4236ft 0kts
07-Dec-17 08:22 40.788508 -111.980775 283 4236ft 0kts
07-Dec-17 08:23 40.788508 -111.980775 283 4236ft 0kts
07-Dec-17 08:24 40.788508 -111.980775 283 4236ft 0kts
07-Dec-17 08:25 40.788508 -111.980775 283 4236ft 0kts
07-Dec-17 08:26 40.788508 -111.980775 283 4236ft 0kts
07-Dec-17 08:27 40.788508 -111.980775 283 4236ft 0kts
07-Dec-17 08:28 40.788508 -111.980775 283 4236ft 0kts
07-Dec-17 08:29 40.788508 -111.980775 283 4236ft 0kts
07-Dec-17 08:30 40.788508 -111.980775 283 4236ft 0kts
07-Dec-17 08:31 40.788508 -111.980775 283 4236ft 0kts
07-Dec-17 08:32 40.788508 -111.980775 283 4236ft 0kts
07-Dec-17 08:33 40.788508 -111.980775 283 4236ft 0kts
07-Dec-17 08:34 40.788508 -111.980775 283 4236ft 0kts
07-Dec-17 08:35 40.788508 -111.980775 283 4236ft 0kts
07-Dec-17 08:36 40.788508 -111.980775 283 4236ft 0kts
07-Dec-17 08:37 40.788508 -111.980775 282 4236ft 0kts
07-Dec-17 08:38 40.788508 -111.980775 282 4236ft 0kts
07-Dec-17 08:39 40.788508 -111.980775 283 4236ft 0kts
07-Dec-17 08:40 40.788508 -111.980775 283 4236ft 0kts
07-Dec-17 08:41 40.788506 -111.980761 283 4236ft 1kts
07-Dec-17 08:42 40.788323 -111.980111 334 4236ft 2kts
07-Dec-17 08:43 40.787979 -111.980115 22 4236ft 0kts
07-Dec-17 08:44 40.787980 -111.980115 22 4236ft 0kts
07-Dec-17 08:45 40.787980 -111.980115 22 4236ft 0kts
07-Dec-17 08:46 40.787990 -111.980109 22 4236ft 0kts
07-Dec-17 08:47 40.788896 -111.979869 356 4236ft 12kts
07-Dec-17 08:48 40.789692 -111.978506 84 4236ft 0kts
07-Dec-17 08:49 40.789692 -111.978506 84 4236ft 0kts
07-Dec-17 08:50 40.789742 -111.976976 141 4236ft 10kts
07-Dec-17 08:51 40.786951 -111.976687 177 4236ft 6kts
07-Dec-17 08:52 40.784892 -111.976445 172 4236ft 8kts
07-Dec-17 08:53 40.782103 -111.976039 173 4236ft 11kts
07-Dec-17 08:54 40.778722 -111.975624 171 4236ft 13kts
07-Dec-17 08:55 40.774899 -111.974767 178 4236ft 9kts
07-Dec-17 08:56 40.774718 -111.974714 157 4236ft 0kts
07-Dec-17 08:57 40.774718 -111.974714 157 4236ft 0kts
07-Dec-17 08:59 40.774461 -111.974363 101 4236ft 11kts
07-Dec-17 09:00 40.775246 -111.973219 356 4236ft 0kts
07-Dec-17 09:01 40.800534 -111.976214 358 4675ft 189kts
07-Dec-17 09:02 40.857060 -111.983941 359 7378ft 225kts
07-Dec-17 09:03 40.920946 -111.992439 357 10501ft 237kts
07-Dec-17 09:04 40.984862 -112.000151 7 13626ft 239kts
07-Dec-17 09:05 41.011122 -111.926614 108 15956ft 308kts
07-Dec-17 09:06 40.943496 -111.839513 133 17032ft 379kts
07-Dec-17 09:07 40.864792 -111.749193 132 18440ft 405kts
07-Dec-17 09:08 40.781791 -111.654310 132 20209ft 416kts
07-Dec-17 09:09 40.728926 -111.530783 101 21860ft 397kts
07-Dec-17 09:10 40.702613 -111.438969 101 22958ft 402kts
07-Dec-17 09:11 40.665121 -111.308786 101 24400ft 408kts
07-Dec-17 09:12 40.626132 -111.173918 101 25726ft 415kts
07-Dec-17 09:13 40.585729 -111.034915 101 26980ft 422kts
07-Dec-17 09:14 40.544352 -110.893333 101 28143ft 427kts
07-Dec-17 09:15 40.502136 -110.749653 100 29201ft 433kts
07-Dec-17 09:16 40.459584 -110.605621 100 30182ft 437kts
07-Dec-17 09:17 40.409558 -110.462442 116 31243ft 458kts
07-Dec-17 09:18 40.321235 -110.345692 125 32373ft 467kts
07-Dec-17 09:19 40.234925 -110.235839 124 33362ft 465kts
07-Dec-17 09:20 40.144149 -110.120801 124 34409ft 461kts
07-Dec-17 09:21 40.052576 -110.006306 124 35193ft 462kts
07-Dec-17 09:22 39.960573 -109.891749 124 35954ft 462kts
07-Dec-17 09:23 39.876794 -109.787787 124 36521ft 459kts
07-Dec-17 09:24 39.785698 -109.675173 124 37084ft 459kts
07-Dec-17 09:25 39.694154 -109.562428 124 37638ft 458kts
07-Dec-17 09:26 39.603277 -109.450926 124 37660ft 460kts
07-Dec-17 09:28 39.513715 -109.341458 125 37655ft 461kts
07-Dec-17 09:29 39.426085 -109.234747 125 37655ft 462kts
07-Dec-17 09:30 39.334476 -109.123602 125 37657ft 462kts
07-Dec-17 09:31 39.242179 -109.012050 126 37658ft 463kts
07-Dec-17 09:32 39.150905 -108.902146 126 37661ft 463kts
07-Dec-17 09:33 39.054284 -108.797941 143 37666ft 486kts
07-Dec-17 09:34 38.923071 -108.750351 162 37676ft 504kts
07-Dec-17 09:35 38.804938 -108.713923 162 37690ft 499kts
07-Dec-17 09:36 38.673230 -108.673447 162 37632ft 496kts
07-Dec-17 09:37 38.542206 -108.633352 163 37591ft 495kts
07-Dec-17 09:38 38.410149 -108.593091 162 37608ft 495kts
07-Dec-17 09:39 38.278114 -108.552968 162 37624ft 496kts
07-Dec-17 09:40 38.145791 -108.512930 162 37645ft 497kts
07-Dec-17 09:41 38.012924 -108.472870 163 37651ft 498kts
07-Dec-17 09:41 37.902207 -108.439603 163 37625ft 499kts
07-Dec-17 09:43 37.753379 -108.395043 163 37533ft 497kts
07-Dec-17 09:44 37.621883 -108.355825 162 37511ft 497kts
07-Dec-17 09:45 37.501450 -108.320036 163 37533ft 497kts
07-Dec-17 09:46 37.369648 -108.281001 163 37572ft 498kts
07-Dec-17 09:47 37.238154 -108.242198 163 37575ft 499kts
07-Dec-17 09:48 37.105456 -108.203194 164 37559ft 499kts
07-Dec-17 09:48 36.994832 -108.170766 167 37593ft 496kts
07-Dec-17 09:50 36.857540 -108.130643 168 37600ft 484kts
07-Dec-17 09:50 36.750771 -108.095993 157 37529ft 481kts
07-Dec-17 09:51 36.638963 -108.008434 146 37090ft 480kts
07-Dec-17 09:52 36.529220 -107.917851 146 36038ft 481kts
07-Dec-17 09:53 36.419274 -107.827505 146 35094ft 482kts
07-Dec-17 09:54 36.309264 -107.737420 146 33731ft 480kts
07-Dec-17 09:55 36.197667 -107.646380 145 30940ft 486kts
07-Dec-17 09:56 36.081149 -107.572064 164 28472ft 484kts
07-Dec-17 09:57 35.953330 -107.531200 163 25976ft 476kts
07-Dec-17 09:58 35.837323 -107.493821 162 23529ft 429kts
07-Dec-17 09:59 35.732213 -107.458979 163 22049ft 383kts
07-Dec-17 10:00 35.631740 -107.426937 163 20275ft 371kts
07-Dec-17 10:01 35.535515 -107.396238 163 18537ft 359kts
07-Dec-17 10:02 35.441866 -107.366117 158 16795ft 347kts
07-Dec-17 10:03 35.383490 -107.285927 121 15201ft 329kts
07-Dec-17 10:04 35.337417 -107.196412 121 14072ft 306kts
07-Dec-17 10:05 35.294764 -107.112859 122 12670ft 298kts
07-Dec-17 10:06 35.239794 -107.043981 136 11292ft 291kts
07-Dec-17 10:07 35.182259 -106.979261 137 9910ft 285kts
07-Dec-17 10:08 35.128189 -106.915776 135 9172ft 260kts
07-Dec-17 10:09 35.081367 -106.853642 129 8577ft 246kts
07-Dec-17 10:10 35.044438 -106.790677 87 7975ft 226kts
07-Dec-17 10:11 35.045078 -106.718446 90 6960ft 201kts
07-Dec-17 10:12 35.044636 -106.659898 90 5989ft 150kts
07-Dec-17 10:13 35.044273 -106.615378 89 5331ft 131kts
07-Dec-17 10:14 35.045507 -106.599303 302 5333ft 18kts
07-Dec-17 10:15 35.045736 -106.605177 272 5324ft 20kts
07-Dec-17 10:16 35.045809 -106.611978 271 5324ft 21kts
07-Dec-17 10:17 35.045570 -106.618922 272 5324ft 17kts
07-Dec-17 10:18 35.047111 -106.618759 72 5324ft 2kts
07-Dec-17 10:19 35.047113 -106.618748 72 5324ft 0kts
07-Dec-17 10:20 35.047113 -106.618748 72 5324ft 0kts

Navigation Log

Ident Type
Flight plan parsing failed, navigation log unavailable